Strona główna
METAR-TAF:

METAR-TAF

Lotnisko :

Cape May County Airport

Wildwood, New Jersey, Stany Zjednoczone

Szerokość geograficzna: 39-01N, Długość geograficzna: 074-55W, wysokość: 7 m

Aktualna obserwacja pogody

Raport powstał 24 minut temu, godzina 21:56 UTC
Wiatr 5 kt od południowo-południowy wschód
Temperatura 6°C
Wilgotność 70%
Ciśnienie 1030 hPa
Widzialność: 16.1 km
bezchmurnie

METAR: KWWD 082156Z AUTO 15005KT 10SM CLR 06/01 A3042 RMK AO2 SLP303 T00610011

czas: 17:20 (22:20 UTC)


TAF: brakujący

Obserwacja i prognoza pogody dla ponad 4000 lotnisk (raport METAR i TAF).

Dostępne stacje oznaczono żółtymi i czerwonymi punktami na mapie.

Najedź kursorem aby zobaczyć nazwę stacji.

Kliknij aby zobaczyć obserwacje i prognozy pogody.

Aby zmienić mapę: kliknij na zielony przycisk z czarnym krzyżykiem, aby powiększyć; na zielony przycisk z myślnikiem, aby pomniejszyć; na zielone strzałki, aby przejść do map sąsiednich.


METAR-TAF: